createdAt,value
2019-01-06T00:02:17.139Z,5.47
2019-01-06T00:05:05.724Z,5.46
2019-01-06T00:07:53.896Z,5.44
2019-01-06T00:10:42.369Z,5.47
2019-01-06T00:13:30.809Z,5.44
2019-01-06T00:16:18.971Z,5.44
2019-01-06T00:19:07.415Z,5.43
2019-01-06T00:21:56.209Z,5.44
2019-01-06T00:24:44.664Z,5.45
2019-01-06T00:27:52.152Z,5.46
2019-01-06T00:30:40.598Z,5.47
2019-01-06T00:33:29.149Z,5.46
2019-01-06T00:39:11.510Z,5.16
2019-01-06T00:41:59.928Z,5.47
2019-01-06T00:44:43.468Z,5.46
2019-01-06T00:47:32.321Z,5.45
2019-01-06T00:50:20.779Z,5.46
2019-01-06T00:53:09.578Z,5.45
2019-01-06T00:55:58.029Z,5.43
2019-01-06T00:58:46.226Z,5.42
2019-01-06T01:01:33.731Z,5.24
2019-01-06T01:04:21.879Z,5.42
2019-01-06T01:07:11.190Z,5.43
2019-01-06T01:10:00.031Z,5.42
2019-01-06T01:12:49.263Z,5.41
2019-01-06T01:15:38.527Z,5.42
2019-01-06T01:18:27.087Z,5.41
2019-01-06T01:21:15.324Z,5.41
2019-01-06T01:24:03.755Z,5.39
2019-01-06T01:26:52.172Z,5.39
2019-01-06T01:29:40.601Z,5.39
2019-01-06T01:32:29.093Z,5.36
2019-01-06T01:35:17.875Z,5.34
2019-01-06T01:38:06.051Z,5.34
2019-01-06T01:40:54.502Z,5.33
2019-01-06T01:43:42.953Z,5.32
2019-01-06T01:46:31.158Z,5.30
2019-01-06T01:49:19.566Z,5.29
2019-01-06T01:52:08.385Z,5.27
2019-01-06T01:54:56.828Z,5.25
2019-01-06T01:57:45.264Z,5.23
2019-01-06T02:03:30.890Z,5.18
2019-01-06T02:06:19.025Z,5.20
2019-01-06T02:12:04.494Z,5.18
2019-01-06T02:20:35.575Z,5.19
2019-01-06T02:43:06.589Z,5.20
2019-01-06T02:59:57.521Z,5.16
2019-01-06T03:02:45.698Z,5.12
2019-01-06T03:05:33.839Z,5.11
2019-01-06T03:08:22.266Z,5.08
2019-01-06T03:11:08.124Z,5.07
2019-01-06T03:13:56.274Z,5.06
2019-01-06T03:16:44.424Z,5.04
2019-01-06T03:19:32.587Z,5.04
2019-01-06T03:22:20.721Z,5.03
2019-01-06T03:25:09.027Z,5.03
2019-01-06T03:27:49.453Z,5.01
2019-01-06T03:30:37.638Z,5.03
2019-01-06T03:33:26.057Z,5.02
2019-01-06T03:36:14.461Z,4.99
2019-01-06T03:39:02.620Z,5.02
2019-01-06T03:41:50.791Z,5.00
2019-01-06T03:44:38.982Z,5.01
2019-01-06T03:47:27.127Z,4.98
2019-01-06T03:50:15.305Z,4.98
2019-01-06T03:53:03.485Z,4.96
2019-01-06T03:55:51.720Z,4.99
2019-01-06T03:58:39.860Z,4.98
2019-01-06T04:01:28.033Z,5.00
2019-01-06T04:04:16.187Z,5.00
2019-01-06T04:07:04.318Z,4.98
2019-01-06T04:09:52.505Z,4.97
2019-01-06T04:12:40.661Z,4.95
2019-01-06T04:15:28.845Z,4.94
2019-01-06T04:18:16.968Z,4.95
2019-01-06T04:21:05.168Z,4.93
2019-01-06T04:23:53.586Z,4.94
2019-01-06T04:26:41.796Z,4.93
2019-01-06T04:29:29.951Z,4.94
2019-01-06T04:32:18.116Z,4.93
2019-01-06T04:35:06.258Z,4.93
2019-01-06T04:37:54.702Z,4.92
2019-01-06T04:40:42.823Z,4.94
2019-01-06T04:43:30.987Z,4.96
2019-01-06T04:46:19.172Z,4.94
2019-01-06T04:49:07.355Z,4.95
2019-01-06T04:51:55.805Z,4.96
2019-01-06T04:54:43.969Z,4.96
2019-01-06T04:57:32.132Z,4.97
2019-01-06T05:00:20.542Z,4.97
2019-01-06T05:03:08.696Z,4.98
2019-01-06T05:05:56.871Z,4.99
2019-01-06T05:08:45.030Z,4.98
2019-01-06T05:11:33.157Z,5.00
2019-01-06T05:14:21.329Z,4.98
2019-01-06T05:17:09.515Z,5.00
2019-01-06T05:19:57.696Z,5.01
2019-01-06T05:22:45.845Z,5.01
2019-01-06T05:25:34.311Z,5.01
2019-01-06T05:28:22.731Z,5.02
2019-01-06T05:31:10.909Z,5.03
2019-01-06T05:33:59.058Z,5.03
2019-01-06T05:36:47.218Z,5.04
2019-01-06T05:39:37.083Z,5.07
2019-01-06T05:42:25.280Z,5.03
2019-01-06T05:45:13.488Z,5.05
2019-01-06T05:48:01.622Z,5.07
2019-01-06T05:50:50.062Z,5.06
2019-01-06T05:53:38.236Z,5.07
2019-01-06T05:56:26.681Z,5.10
2019-01-06T05:59:14.829Z,5.08
2019-01-06T06:01:56.796Z,5.08
2019-01-06T06:04:44.954Z,5.08
2019-01-06T06:07:33.111Z,5.07
2019-01-06T06:10:21.233Z,5.07
2019-01-06T06:13:09.698Z,5.05
2019-01-06T06:15:57.834Z,5.06
2019-01-06T06:18:45.978Z,5.05
2019-01-06T06:21:34.532Z,5.03
2019-01-06T06:24:22.627Z,5.00
2019-01-06T06:27:10.787Z,5.02
2019-01-06T06:29:58.945Z,5.00
2019-01-06T06:32:47.115Z,4.99
2019-01-06T06:35:35.257Z,4.97
2019-01-06T06:38:23.705Z,4.98
2019-01-06T06:41:11.873Z,4.96
2019-01-06T06:44:00.067Z,4.94
2019-01-06T06:46:48.529Z,4.93
2019-01-06T06:49:36.705Z,4.91
2019-01-06T06:52:24.856Z,4.89
2019-01-06T06:55:13.109Z,4.90
2019-01-06T06:58:39.611Z,4.91
2019-01-06T07:01:49.485Z,4.90
2019-01-06T07:04:38.155Z,4.88
2019-01-06T07:07:26.294Z,4.86
2019-01-06T07:10:14.473Z,4.83
2019-01-06T07:13:02.916Z,4.83
2019-01-06T07:15:51.105Z,4.82
2019-01-06T07:18:43.807Z,4.82
2019-01-06T07:21:32.269Z,4.78
2019-01-06T07:24:20.802Z,4.77
2019-01-06T07:27:09.221Z,4.77
2019-01-06T07:29:57.470Z,4.79
2019-01-06T07:32:45.889Z,4.78
2019-01-06T07:35:34.054Z,4.78
2019-01-06T07:38:22.191Z,4.77
2019-01-06T07:41:10.363Z,4.78
2019-01-06T07:47:05.666Z,4.77
2019-01-06T07:49:53.818Z,4.75
2019-01-06T07:52:42.349Z,4.75
2019-01-06T07:55:30.495Z,4.74
2019-01-06T07:58:18.691Z,4.71
2019-01-06T08:01:06.834Z,4.71
2019-01-06T08:03:54.987Z,4.74
2019-01-06T08:06:43.192Z,4.75
2019-01-06T08:09:31.615Z,4.76
2019-01-06T08:12:20.126Z,4.78
2019-01-06T08:15:08.256Z,4.78
2019-01-06T08:17:56.421Z,4.76
2019-01-06T08:20:44.572Z,4.74
2019-01-06T08:23:32.726Z,4.71
2019-01-06T08:26:20.858Z,4.72
2019-01-06T08:29:09.038Z,4.72
2019-01-06T08:31:57.189Z,4.69
2019-01-06T08:34:45.383Z,4.71
2019-01-06T08:37:33.574Z,4.71
2019-01-06T08:40:21.707Z,4.72
2019-01-06T08:43:09.869Z,4.71
2019-01-06T08:45:58.009Z,4.73
2019-01-06T08:48:46.189Z,4.73
2019-01-06T08:51:34.332Z,4.77
2019-01-06T08:54:22.562Z,4.75
2019-01-06T08:57:10.677Z,4.77
2019-01-06T08:59:58.843Z,4.83
2019-01-06T09:02:47.064Z,4.85
2019-01-06T09:05:35.458Z,4.82
2019-01-06T09:08:23.656Z,4.89
2019-01-06T09:11:11.852Z,4.91
2019-01-06T09:13:58.192Z,4.93
2019-01-06T09:16:46.344Z,4.92
2019-01-06T09:27:47.006Z,4.97
2019-01-06T09:30:35.456Z,5.00
2019-01-06T09:33:23.654Z,5.00
2019-01-06T09:36:11.790Z,4.98
2019-01-06T09:38:59.937Z,4.96
2019-01-06T09:41:48.073Z,5.01
2019-01-06T09:44:36.223Z,5.00
2019-01-06T09:47:24.390Z,5.02
2019-01-06T09:50:06.360Z,4.97
2019-01-06T09:52:54.486Z,4.98
2019-01-06T09:55:42.639Z,5.01
2019-01-06T09:58:30.774Z,5.02
2019-01-06T10:01:19.205Z,5.03
2019-01-06T10:04:07.393Z,5.06
2019-01-06T10:06:55.522Z,5.12
2019-01-06T10:09:43.694Z,5.09
2019-01-06T10:12:31.926Z,5.10
2019-01-06T10:15:20.354Z,5.14
2019-01-06T10:18:08.486Z,5.13
2019-01-06T10:20:56.624Z,5.09
2019-01-06T10:23:40.124Z,5.08
2019-01-06T10:26:28.292Z,5.14
2019-01-06T10:29:16.428Z,5.15
2019-01-06T10:32:04.579Z,5.17
2019-01-06T10:37:47.619Z,5.25
2019-01-06T10:40:35.797Z,5.26
2019-01-06T10:43:23.963Z,5.27
2019-01-06T10:46:12.513Z,5.24
2019-01-06T10:49:00.711Z,5.23
2019-01-06T10:51:48.889Z,5.26
2019-01-06T10:54:37.041Z,5.26
2019-01-06T10:57:25.581Z,5.23
2019-01-06T11:00:13.957Z,5.25
2019-01-06T11:03:02.126Z,5.22
2019-01-06T11:05:50.315Z,5.23
2019-01-06T11:08:38.471Z,5.23
2019-01-06T11:11:26.631Z,5.25
2019-01-06T11:14:15.084Z,5.25
2019-01-06T11:17:03.534Z,5.27
2019-01-06T11:19:51.666Z,5.26
2019-01-06T11:22:39.855Z,5.25
2019-01-06T11:25:28.002Z,5.22
2019-01-06T11:28:11.554Z,5.22
2019-01-06T11:30:59.710Z,5.23
2019-01-06T11:33:47.850Z,5.21
2019-01-06T11:36:36.044Z,5.21
2019-01-06T11:39:44.738Z,5.20
2019-01-06T11:42:32.911Z,5.20
2019-01-06T11:45:21.065Z,5.19
2019-01-06T11:48:09.249Z,5.25
2019-01-06T11:50:57.961Z,5.20
2019-01-06T11:53:38.285Z,5.22
2019-01-06T11:56:26.457Z,5.27
2019-01-06T11:59:14.877Z,5.26
2019-01-06T12:02:03.113Z,5.28
2019-01-06T12:04:51.272Z,5.38
2019-01-06T12:07:39.450Z,5.45
2019-01-06T12:10:27.622Z,5.48
2019-01-06T12:13:16.376Z,5.51
2019-01-06T12:16:04.529Z,5.54
2019-01-06T12:18:52.676Z,5.53
2019-01-06T12:21:41.108Z,5.55
2019-01-06T12:24:29.552Z,5.56
2019-01-06T12:27:17.720Z,5.53
2019-01-06T12:30:05.858Z,5.58
2019-01-06T12:33:13.085Z,5.62
2019-01-06T12:36:01.559Z,5.74
2019-01-06T12:38:50.014Z,5.77
2019-01-06T12:41:38.518Z,5.90
2019-01-06T12:44:27.087Z,5.97
2019-01-06T12:47:15.589Z,5.98
2019-01-06T12:50:03.840Z,6.08
2019-01-06T12:52:52.083Z,6.12
2019-01-06T12:55:40.241Z,6.16
2019-01-06T12:58:28.402Z,6.17
2019-01-06T13:01:16.522Z,6.11
2019-01-06T13:04:04.958Z,6.07
2019-01-06T13:06:53.111Z,6.12
2019-01-06T13:09:41.261Z,6.24
2019-01-06T13:12:29.676Z,6.24
2019-01-06T13:15:17.844Z,6.23
2019-01-06T13:18:06.048Z,6.18
2019-01-06T13:24:01.314Z,6.09
2019-01-06T13:26:50.028Z,6.09
2019-01-06T13:29:38.164Z,6.10
2019-01-06T13:32:26.323Z,6.04
2019-01-06T13:35:14.523Z,6.06
2019-01-06T13:38:02.680Z,6.04
2019-01-06T13:40:50.900Z,6.12
2019-01-06T13:43:39.409Z,6.16
2019-01-06T13:46:27.983Z,6.23
2019-01-06T13:49:16.171Z,6.29
2019-01-06T13:52:04.578Z,6.43
2019-01-06T13:57:47.687Z,6.34
2019-01-06T14:00:35.857Z,6.29
2019-01-06T14:03:23.988Z,6.34
2019-01-06T14:06:07.266Z,6.31
2019-01-06T14:08:52.127Z,6.28
2019-01-06T14:11:40.272Z,6.32
2019-01-06T14:14:28.715Z,6.33
2019-01-06T14:17:17.134Z,6.29
2019-01-06T14:20:05.719Z,6.28
2019-01-06T14:22:53.871Z,6.24
2019-01-06T14:25:42.296Z,6.17
2019-01-06T14:28:30.423Z,6.14
2019-01-06T14:31:18.589Z,6.07
2019-01-06T14:34:06.807Z,6.05
2019-01-06T14:36:48.544Z,6.05
2019-01-06T14:39:36.697Z,6.05
2019-01-06T14:42:24.866Z,6.06
2019-01-06T14:45:13.049Z,6.06
2019-01-06T14:47:51.683Z,6.01
2019-01-06T14:50:39.835Z,5.96
2019-01-06T14:53:29.704Z,5.95
2019-01-06T14:56:17.860Z,5.94
2019-01-06T14:59:06.022Z,5.96
2019-01-06T15:01:54.217Z,5.97
2019-01-06T15:04:42.358Z,5.97
2019-01-06T15:07:30.528Z,5.94
2019-01-06T15:10:15.073Z,5.92
2019-01-06T15:13:03.548Z,5.94
2019-01-06T15:15:51.703Z,5.92
2019-01-06T15:18:39.819Z,5.92
2019-01-06T15:21:27.990Z,5.93
2019-01-06T15:24:16.138Z,5.93
2019-01-06T15:27:04.315Z,5.89
2019-01-06T15:29:52.444Z,5.85
2019-01-06T15:32:40.896Z,5.80
2019-01-06T15:35:29.656Z,5.78
2019-01-06T15:38:18.126Z,5.76
2019-01-06T15:41:06.282Z,5.71
2019-01-06T15:43:54.433Z,5.69
2019-01-06T15:46:42.856Z,5.69
2019-01-06T15:49:31.039Z,5.64
2019-01-06T15:52:19.192Z,5.61
2019-01-06T15:55:07.318Z,5.60
2019-01-06T15:57:55.498Z,5.58
2019-01-06T16:00:43.637Z,5.57
2019-01-06T16:03:31.785Z,5.57
2019-01-06T16:06:19.924Z,5.55
2019-01-06T16:09:08.089Z,5.54
2019-01-06T16:11:56.287Z,5.53
2019-01-06T16:14:44.423Z,5.53
2019-01-06T16:17:32.588Z,5.53
2019-01-06T16:20:20.737Z,5.50
2019-01-06T16:23:08.893Z,5.48
2019-01-06T16:25:49.608Z,5.50
2019-01-06T16:28:37.752Z,5.46
2019-01-06T16:31:25.874Z,5.41
2019-01-06T16:34:14.059Z,5.42
2019-01-06T16:40:09.410Z,5.39
2019-01-06T16:42:57.610Z,5.36
2019-01-06T16:45:45.731Z,5.42
2019-01-06T16:48:33.928Z,5.43
2019-01-06T16:51:22.085Z,5.46
2019-01-06T16:54:10.243Z,5.45
2019-01-06T16:56:58.367Z,5.43
2019-01-06T16:59:46.524Z,5.46
2019-01-06T17:02:34.650Z,5.45
2019-01-06T17:05:15.152Z,5.53
2019-01-06T17:08:03.323Z,5.39
2019-01-06T17:10:51.466Z,5.45
2019-01-06T17:13:39.942Z,5.45
2019-01-06T17:16:28.112Z,5.47
2019-01-06T17:19:16.562Z,5.42
2019-01-06T17:22:04.703Z,5.47
2019-01-06T17:24:52.860Z,5.40
2019-01-06T17:27:40.980Z,5.36
2019-01-06T17:30:29.409Z,5.38
2019-01-06T17:33:17.917Z,5.40
2019-01-06T17:36:25.315Z,5.38
2019-01-06T17:39:13.467Z,5.37
2019-01-06T17:42:01.598Z,5.38
2019-01-06T17:44:49.767Z,5.38
2019-01-06T17:47:31.574Z,5.38
2019-01-06T17:50:20.318Z,5.43
2019-01-06T17:53:08.459Z,5.42
2019-01-06T17:55:56.611Z,5.43
2019-01-06T17:58:44.744Z,5.42
2019-01-06T18:01:32.955Z,5.42
2019-01-06T18:04:29.849Z,5.41
2019-01-06T18:07:17.970Z,5.43
2019-01-06T18:10:06.124Z,5.44
2019-01-06T18:12:55.066Z,5.43
2019-01-06T18:15:43.596Z,5.41
2019-01-06T18:18:32.002Z,5.37
2019-01-06T18:21:20.496Z,5.38
2019-01-06T18:24:08.670Z,5.41
2019-01-06T18:26:56.851Z,5.41
2019-01-06T18:41:31.359Z,5.31
2019-01-06T18:44:40.100Z,5.38
2019-01-06T18:47:28.497Z,5.37
2019-01-06T18:50:16.683Z,5.37
2019-01-06T18:53:04.827Z,5.37
2019-01-06T18:55:53.003Z,5.32
2019-01-06T18:58:41.423Z,5.32
2019-01-06T19:01:29.573Z,5.07
2019-01-06T19:04:17.709Z,5.30
2019-01-06T19:07:06.181Z,5.29
2019-01-06T19:09:54.328Z,5.28
2019-01-06T19:13:02.710Z,5.18
2019-01-06T19:15:46.230Z,5.20
2019-01-06T19:18:34.440Z,5.20
2019-01-06T19:21:22.956Z,5.19
2019-01-06T19:24:11.073Z,5.14
2019-01-06T19:26:59.552Z,5.13
2019-01-06T19:29:47.967Z,5.11
2019-01-06T19:32:34.355Z,5.05
2019-01-06T19:35:24.562Z,5.08
2019-01-06T19:38:13.040Z,5.15
2019-01-06T19:41:01.208Z,5.12
2019-01-06T19:43:49.358Z,5.12
2019-01-06T19:46:37.764Z,5.11
2019-01-06T19:49:26.203Z,5.11
2019-01-06T19:52:33.640Z,5.14
2019-01-06T19:55:21.781Z,5.13
2019-01-06T19:58:10.233Z,5.14
2019-01-06T20:00:58.346Z,5.10
2019-01-06T20:04:07.066Z,5.11
2019-01-06T20:06:55.214Z,5.17
2019-01-06T20:09:43.350Z,5.15
2019-01-06T20:12:50.589Z,5.11
2019-01-06T20:15:38.719Z,5.13
2019-01-06T20:18:20.064Z,5.15
2019-01-06T20:21:08.888Z,5.10
2019-01-06T20:23:57.050Z,5.06
2019-01-06T20:26:45.588Z,5.08
2019-01-06T20:29:34.282Z,5.10
2019-01-06T20:32:23.092Z,5.12
2019-01-06T20:35:11.223Z,5.10
2019-01-06T20:37:53.765Z,5.10
2019-01-06T20:41:00.988Z,5.08
2019-01-06T20:43:49.611Z,5.09
2019-01-06T20:46:56.925Z,5.03
2019-01-06T20:49:45.082Z,5.04
2019-01-06T20:52:41.349Z,5.04
2019-01-06T20:55:23.891Z,5.03
2019-01-06T20:58:31.604Z,4.95
2019-01-06T21:01:19.744Z,4.97
2019-01-06T21:04:08.300Z,5.02
2019-01-06T21:06:56.852Z,5.02
2019-01-06T21:09:45.019Z,4.94
2019-01-06T21:12:33.212Z,4.98
2019-01-06T21:15:21.606Z,4.92
2019-01-06T21:18:09.768Z,4.91
2019-01-06T21:20:58.165Z,4.92
2019-01-06T21:23:46.656Z,4.94
2019-01-06T21:26:34.816Z,4.98
2019-01-06T21:29:23.021Z,5.01
2019-01-06T21:32:11.707Z,4.98
2019-01-06T21:34:52.875Z,5.04
2019-01-06T21:37:38.187Z,5.01
2019-01-06T21:40:26.859Z,4.99
2019-01-06T21:43:15.264Z,5.02
2019-01-06T21:46:03.465Z,5.04
2019-01-06T21:48:54.123Z,5.01
2019-01-06T21:52:01.620Z,5.02
2019-01-06T21:54:49.882Z,5.02
2019-01-06T21:57:38.364Z,5.00
2019-01-06T22:00:27.351Z,5.02
2019-01-06T22:09:02.455Z,4.98
2019-01-06T22:11:50.636Z,4.98
2019-01-06T22:14:38.810Z,4.97
2019-01-06T22:17:27.465Z,4.93
2019-01-06T22:20:34.669Z,4.92
2019-01-06T22:23:22.919Z,4.94
2019-01-06T22:26:11.082Z,4.95
2019-01-06T22:28:59.216Z,4.91
2019-01-06T22:31:47.388Z,4.96
2019-01-06T22:34:35.513Z,4.96
2019-01-06T22:37:23.697Z,4.94
2019-01-06T22:40:11.843Z,4.96
2019-01-06T22:43:00.031Z,4.98
2019-01-06T22:45:48.257Z,4.98
2019-01-06T22:48:36.467Z,5.01
2019-01-06T22:51:24.956Z,4.96
2019-01-06T22:54:13.085Z,4.98
2019-01-06T22:57:01.501Z,4.97
2019-01-06T22:59:49.931Z,4.99
2019-01-06T23:02:38.349Z,4.97
2019-01-06T23:05:27.126Z,4.97
2019-01-06T23:08:15.579Z,4.95
2019-01-06T23:11:03.748Z,4.99
2019-01-06T23:13:51.892Z,4.96
2019-01-06T23:16:41.466Z,5.01
2019-01-06T23:19:29.890Z,4.98
2019-01-06T23:22:18.316Z,4.96
2019-01-06T23:25:06.496Z,4.99
2019-01-06T23:27:54.676Z,4.92
2019-01-06T23:30:45.099Z,4.91
2019-01-06T23:33:33.622Z,4.88
2019-01-06T23:36:21.866Z,4.87
2019-01-06T23:39:10.005Z,4.84
2019-01-06T23:41:58.150Z,4.82
2019-01-06T23:44:46.759Z,4.76
2019-01-06T23:47:34.883Z,4.79
2019-01-06T23:50:23.120Z,4.76
2019-01-06T23:53:11.284Z,4.77
2019-01-06T23:55:59.443Z,4.75
2019-01-06T23:58:37.326Z,4.71
